createdAt,value
2022-08-01T00:02:37.489Z,19.27
2022-08-01T00:07:42.407Z,16.52
2022-08-01T00:12:51.406Z,18.70
2022-08-01T00:17:56.719Z,21.55
2022-08-01T00:22:58.442Z,34.92
2022-08-01T00:28:00.189Z,20.50
2022-08-01T00:33:05.810Z,20.30
2022-08-01T00:38:10.029Z,17.42
2022-08-01T00:43:11.794Z,19.98
2022-08-01T00:48:15.804Z,17.88
2022-08-01T00:53:18.977Z,20.42
2022-08-01T00:58:24.169Z,15.15
2022-08-01T01:09:19.637Z,16.33
2022-08-01T01:14:33.842Z,20.13
2022-08-01T01:19:41.019Z,16.25
2022-08-01T01:25:20.541Z,15.75
2022-08-01T01:30:23.786Z,12.18
2022-08-01T01:35:28.271Z,10.48
2022-08-01T01:40:34.150Z,13.82
2022-08-01T01:45:36.877Z,9.82
2022-08-01T01:50:38.692Z,7.93
2022-08-01T01:55:49.338Z,12.07
2022-08-01T02:00:58.826Z,9.90
2022-08-01T02:06:09.842Z,9.98
2022-08-01T02:11:20.704Z,7.53
2022-08-01T02:16:25.927Z,11.00
2022-08-01T02:21:38.836Z,10.73
2022-08-01T02:26:43.275Z,11.25
2022-08-01T02:31:55.678Z,10.10
2022-08-01T02:36:58.390Z,11.30
2022-08-01T02:42:05.323Z,11.98
2022-08-01T02:47:13.840Z,14.85
2022-08-01T02:52:21.011Z,11.27
2022-08-01T02:57:25.595Z,11.15
2022-08-01T03:02:36.030Z,13.60
2022-08-01T03:07:40.988Z,8.57
2022-08-01T03:12:49.447Z,12.30
2022-08-01T03:17:52.583Z,15.32
2022-08-01T03:22:57.201Z,13.98
2022-08-01T03:28:03.061Z,19.35
2022-08-01T03:33:04.856Z,19.23
2022-08-01T03:38:16.263Z,23.13
2022-08-01T03:43:39.296Z,20.35
2022-08-01T03:48:49.867Z,24.00
2022-08-01T03:53:52.655Z,18.88
2022-08-01T03:58:56.691Z,21.33
2022-08-01T04:04:00.765Z,16.08
2022-08-01T04:09:13.305Z,17.70
2022-08-01T04:14:15.962Z,16.75
2022-08-01T04:19:20.004Z,13.23
2022-08-01T04:24:26.060Z,15.07
2022-08-01T04:29:33.456Z,16.67
2022-08-01T04:34:35.926Z,17.00
2022-08-01T04:39:51.115Z,23.90
2022-08-01T04:44:53.282Z,21.77
2022-08-01T04:49:57.639Z,20.55
2022-08-01T04:55:01.864Z,20.10
2022-08-01T05:00:09.417Z,23.88
2022-08-01T05:05:13.619Z,25.52
2022-08-01T05:10:15.487Z,28.73
2022-08-01T05:15:20.549Z,29.02
2022-08-01T05:20:27.335Z,22.33
2022-08-01T05:25:56.368Z,22.35
2022-08-01T05:30:56.526Z,22.30
2022-08-01T05:35:58.232Z,26.73
2022-08-01T05:41:00.319Z,18.15
2022-08-01T05:46:04.260Z,19.35
2022-08-01T05:51:06.113Z,22.35
2022-08-01T05:56:10.097Z,18.63
2022-08-01T06:01:15.229Z,23.85
2022-08-01T06:06:17.139Z,16.00
2022-08-01T06:11:21.207Z,32.88
2022-08-01T06:16:24.269Z,28.65
2022-08-01T06:21:26.350Z,21.10
2022-08-01T06:26:30.665Z,19.10
2022-08-01T06:31:33.971Z,24.65
2022-08-01T06:36:40.238Z,27.63
2022-08-01T06:41:47.932Z,21.33
2022-08-01T06:46:50.313Z,16.95
2022-08-01T06:51:55.328Z,18.75
2022-08-01T06:56:59.333Z,20.63
2022-08-01T07:02:03.738Z,19.00
2022-08-01T07:07:06.228Z,20.33
2022-08-01T07:12:09.086Z,25.42
2022-08-01T07:17:13.065Z,15.00
2022-08-01T07:22:23.444Z,21.67
2022-08-01T07:27:29.420Z,17.17
2022-08-01T07:32:35.212Z,14.05
2022-08-01T07:37:48.606Z,19.08
2022-08-01T07:42:51.557Z,21.48
2022-08-01T07:47:54.569Z,20.42
2022-08-01T07:53:01.111Z,21.35
2022-08-01T07:58:05.073Z,14.85
2022-08-01T08:03:07.622Z,21.92
2022-08-01T08:08:12.920Z,11.27
2022-08-01T08:13:15.299Z,14.43
2022-08-01T08:18:17.676Z,17.55
2022-08-01T08:23:42.008Z,16.23
2022-08-01T08:28:48.034Z,19.48
2022-08-01T08:33:55.318Z,12.70
2022-08-01T08:38:57.818Z,19.00
2022-08-01T08:44:06.410Z,15.15
2022-08-01T08:49:36.191Z,14.05
2022-08-01T08:54:42.769Z,16.73
2022-08-01T08:59:46.056Z,14.40
2022-08-01T09:04:51.191Z,12.25
2022-08-01T09:10:01.558Z,10.52
2022-08-01T09:15:10.526Z,10.07
2022-08-01T09:20:27.299Z,13.90
2022-08-01T09:25:46.151Z,11.98
2022-08-01T09:30:54.168Z,13.15
2022-08-01T09:35:58.795Z,11.70
2022-08-01T09:41:02.662Z,19.05
2022-08-01T09:46:15.240Z,10.18
2022-08-01T09:51:57.892Z,12.93
2022-08-01T09:57:09.925Z,9.52
2022-08-01T10:02:37.897Z,13.90
2022-08-01T10:08:02.761Z,15.25
2022-08-01T10:13:10.540Z,11.90
2022-08-01T10:18:16.147Z,11.38
2022-08-01T10:23:23.805Z,9.98
2022-08-01T10:28:54.135Z,10.75
2022-08-01T10:33:58.202Z,15.25
2022-08-01T10:39:05.252Z,10.75
2022-08-01T10:44:08.959Z,7.60
2022-08-01T10:49:16.972Z,13.63
2022-08-01T10:54:18.723Z,16.23
2022-08-01T10:59:51.161Z,13.27
2022-08-01T11:05:09.563Z,8.68
2022-08-01T11:10:24.273Z,18.33
2022-08-01T11:15:29.401Z,12.40
2022-08-01T11:20:42.099Z,8.20
2022-08-01T11:26:03.973Z,9.98
2022-08-01T11:31:11.712Z,9.32
2022-08-01T11:36:36.910Z,10.30
2022-08-01T11:41:47.537Z,12.05
2022-08-01T11:47:10.928Z,10.90
2022-08-01T11:52:25.093Z,9.68
2022-08-01T11:57:39.291Z,11.27
2022-08-01T12:02:45.605Z,13.27
2022-08-01T12:07:56.080Z,9.52
2022-08-01T12:13:04.195Z,8.35
2022-08-01T12:18:09.315Z,7.03
2022-08-01T12:23:17.455Z,11.80
2022-08-01T12:28:25.550Z,8.15
2022-08-01T12:33:27.978Z,5.97
2022-08-01T12:38:31.084Z,11.15
2022-08-01T12:43:33.035Z,7.38
2022-08-01T12:48:39.960Z,10.00
2022-08-01T12:53:47.206Z,9.38
2022-08-01T12:58:52.660Z,8.57
2022-08-01T13:04:05.246Z,11.15
2022-08-01T13:09:11.494Z,6.78
2022-08-01T13:14:30.736Z,5.25
2022-08-01T13:19:45.699Z,7.63
2022-08-01T13:24:49.480Z,7.72
2022-08-01T13:29:57.824Z,8.65
2022-08-01T13:35:07.491Z,5.85
2022-08-01T13:40:12.913Z,10.25
2022-08-01T13:45:15.205Z,10.95
2022-08-01T13:50:17.066Z,10.13
2022-08-01T13:55:21.085Z,9.90
2022-08-01T14:00:27.318Z,11.20
2022-08-01T14:05:31.302Z,9.38
2022-08-01T14:10:34.041Z,12.32
2022-08-01T14:15:39.881Z,10.18
2022-08-01T14:20:42.807Z,10.25
2022-08-01T14:26:05.570Z,9.68
2022-08-01T14:31:10.421Z,10.23
2022-08-01T14:36:30.155Z,11.85
2022-08-01T14:41:35.491Z,9.30
2022-08-01T14:46:57.190Z,8.10
2022-08-01T14:52:02.124Z,5.50
2022-08-01T14:57:07.084Z,7.53
2022-08-01T15:02:12.263Z,6.80
2022-08-01T15:07:19.583Z,6.93
2022-08-01T15:12:23.597Z,10.60
2022-08-01T15:17:30.328Z,10.68
2022-08-01T15:22:36.816Z,8.25
2022-08-01T15:27:41.206Z,8.05
2022-08-01T15:32:47.832Z,6.50
2022-08-01T15:37:55.266Z,9.25
2022-08-01T15:43:01.337Z,5.15
2022-08-01T15:48:05.935Z,6.03
2022-08-01T15:53:10.805Z,8.35
2022-08-01T15:58:12.821Z,6.97
2022-08-01T16:03:14.591Z,6.97
2022-08-01T16:08:21.221Z,5.72
2022-08-01T16:13:25.552Z,6.95
2022-08-01T16:18:27.235Z,6.05
2022-08-01T16:23:34.301Z,8.30
2022-08-01T16:28:38.381Z,4.10
2022-08-01T16:33:50.790Z,6.85
2022-08-01T16:38:57.177Z,11.35
2022-08-01T16:43:59.338Z,4.90
2022-08-01T16:49:01.425Z,5.60
2022-08-01T16:54:24.846Z,6.57
2022-08-01T16:59:31.917Z,4.10
2022-08-01T17:04:38.454Z,9.02
2022-08-01T17:09:43.790Z,8.70
2022-08-01T17:14:46.874Z,8.52
2022-08-01T17:19:49.806Z,9.23
2022-08-01T17:24:52.287Z,7.95
2022-08-01T17:30:00.732Z,6.93
2022-08-01T17:35:03.006Z,9.50
2022-08-01T17:40:37.474Z,10.77
2022-08-01T17:45:47.623Z,7.30
2022-08-01T17:50:52.162Z,8.20
2022-08-01T17:56:01.561Z,9.88
2022-08-01T18:01:05.839Z,7.20
2022-08-01T18:06:07.860Z,6.38
2022-08-01T18:11:10.017Z,10.23
2022-08-01T18:16:17.375Z,9.32
2022-08-01T18:21:25.847Z,7.22
2022-08-01T18:26:30.023Z,10.45
2022-08-01T18:31:31.759Z,8.73
2022-08-01T18:36:34.404Z,8.60
2022-08-01T18:41:38.974Z,9.77
2022-08-01T18:46:40.817Z,5.97
2022-08-01T18:51:44.990Z,8.00
2022-08-01T18:56:46.948Z,5.82
2022-08-01T19:01:51.110Z,6.63
2022-08-01T19:07:09.079Z,10.20
2022-08-01T19:12:11.101Z,9.80
2022-08-01T19:17:14.688Z,8.98
2022-08-01T19:22:18.742Z,7.97
2022-08-01T19:27:26.476Z,7.93
2022-08-01T19:32:32.944Z,6.30
2022-08-01T19:37:45.728Z,6.97
2022-08-01T19:42:50.002Z,5.93
2022-08-01T19:47:58.157Z,6.47
2022-08-01T19:53:05.252Z,8.77
2022-08-01T19:58:26.978Z,9.18
2022-08-01T20:03:33.222Z,7.72
2022-08-01T20:08:37.914Z,7.32
2022-08-01T20:13:42.291Z,5.85
2022-08-01T20:18:46.355Z,4.90
2022-08-01T20:23:50.602Z,9.70
2022-08-01T20:28:53.432Z,5.75
2022-08-01T20:33:56.462Z,6.43
2022-08-01T20:38:59.077Z,6.20
2022-08-01T20:44:00.817Z,4.93
2022-08-01T20:49:05.257Z,5.68
2022-08-01T20:54:10.804Z,11.35
2022-08-01T20:59:40.150Z,7.30
2022-08-01T21:04:55.042Z,7.72
2022-08-01T21:10:07.964Z,6.47
2022-08-01T21:15:15.371Z,5.70
2022-08-01T21:20:22.478Z,9.75
2022-08-01T21:25:35.708Z,6.72
2022-08-01T21:30:40.856Z,4.65
2022-08-01T21:35:52.233Z,9.48
2022-08-01T21:40:58.421Z,7.32
2022-08-01T21:46:04.299Z,12.75
2022-08-01T21:51:16.968Z,7.47
2022-08-01T21:57:02.013Z,8.68
2022-08-01T22:02:30.918Z,10.85
2022-08-01T22:07:42.304Z,7.45
2022-08-01T22:12:45.196Z,8.20
2022-08-01T22:17:52.561Z,6.55
2022-08-01T22:22:59.123Z,7.20
2022-08-01T22:28:09.407Z,7.85
2022-08-01T22:33:17.269Z,5.95
2022-08-01T22:38:24.110Z,11.60
2022-08-01T22:43:53.814Z,14.70
2022-08-01T22:49:08.985Z,4.75
2022-08-01T22:54:13.488Z,12.27
2022-08-01T22:59:41.812Z,5.18
2022-08-01T23:04:49.257Z,7.85
2022-08-01T23:09:57.343Z,7.28
2022-08-01T23:15:02.392Z,7.68
2022-08-01T23:20:11.248Z,9.00
2022-08-01T23:25:20.954Z,6.30
2022-08-01T23:30:28.016Z,7.47
2022-08-01T23:35:35.581Z,6.80
2022-08-01T23:40:43.516Z,9.07
2022-08-01T23:46:04.098Z,10.00
2022-08-01T23:51:07.180Z,7.45
2022-08-01T23:56:09.157Z,8.90
